createdAt,value
2023-05-02T00:02:24.146Z,21.67
2023-05-02T00:04:51.372Z,18.33
2023-05-02T00:07:18.228Z,17.05
2023-05-02T00:09:45.103Z,15.57
2023-05-02T00:12:11.931Z,22.50
2023-05-02T00:14:38.750Z,16.63
2023-05-02T00:17:05.658Z,24.88
2023-05-02T00:19:32.527Z,16.67
2023-05-02T00:21:59.338Z,18.25
2023-05-02T00:24:26.949Z,21.33
2023-05-02T00:26:53.789Z,20.95
2023-05-02T00:29:21.275Z,19.30
2023-05-02T00:31:48.194Z,17.90
2023-05-02T00:34:15.055Z,19.50
2023-05-02T00:36:41.856Z,18.17
2023-05-02T00:39:08.777Z,21.95
2023-05-02T00:41:35.796Z,20.15
2023-05-02T00:44:02.676Z,21.23
2023-05-02T00:46:30.472Z,22.73
2023-05-02T00:48:57.402Z,19.10
2023-05-02T00:51:24.308Z,18.55
2023-05-02T00:53:52.391Z,18.90
2023-05-02T00:56:19.293Z,20.98
2023-05-02T00:58:47.482Z,19.50
2023-05-02T01:01:29.996Z,20.38
2023-05-02T01:04:38.723Z,14.07
2023-05-02T01:07:25.111Z,17.85
2023-05-02T01:10:28.464Z,18.60
2023-05-02T01:13:19.383Z,13.18
2023-05-02T01:15:49.200Z,16.55
2023-05-02T01:18:19.005Z,18.92
2023-05-02T01:20:48.279Z,24.25
2023-05-02T01:23:44.651Z,20.40
2023-05-02T01:26:34.861Z,21.60
2023-05-02T01:29:03.700Z,24.50
2023-05-02T01:31:37.660Z,19.20
2023-05-02T01:34:10.275Z,20.05
2023-05-02T01:36:46.656Z,18.50
2023-05-02T01:39:19.509Z,24.05
2023-05-02T01:41:52.080Z,20.30
2023-05-02T01:44:22.873Z,23.52
2023-05-02T01:46:52.098Z,19.95
2023-05-02T01:49:19.785Z,20.90
2023-05-02T01:51:49.269Z,21.13
2023-05-02T01:54:18.668Z,21.23
2023-05-02T01:56:46.763Z,22.67
2023-05-02T01:59:20.019Z,17.70
2023-05-02T02:01:48.470Z,22.05
2023-05-02T02:04:16.917Z,20.98
2023-05-02T02:06:50.321Z,18.90
2023-05-02T02:09:17.487Z,20.30
2023-05-02T02:12:03.735Z,20.55
2023-05-02T02:14:38.432Z,18.02
2023-05-02T02:17:19.615Z,21.20
2023-05-02T02:19:46.762Z,19.85
2023-05-02T02:22:15.537Z,19.65
2023-05-02T02:24:44.480Z,21.83
2023-05-02T02:27:11.329Z,20.40
2023-05-02T02:29:38.136Z,22.45
2023-05-02T02:32:05.467Z,19.88
2023-05-02T02:34:32.384Z,19.85
2023-05-02T02:37:10.414Z,20.95
2023-05-02T02:39:51.832Z,18.00
2023-05-02T02:42:52.478Z,22.40
2023-05-02T02:45:44.747Z,22.90
2023-05-02T02:48:28.253Z,23.08
2023-05-02T02:51:16.139Z,24.33
2023-05-02T02:54:29.425Z,19.33
2023-05-02T02:57:27.680Z,23.73
2023-05-02T03:00:18.388Z,21.50
2023-05-02T03:02:47.836Z,25.15
2023-05-02T03:05:16.167Z,23.48
2023-05-02T03:07:43.515Z,25.98
2023-05-02T03:10:11.835Z,20.65
2023-05-02T03:12:40.116Z,23.13
2023-05-02T03:16:22.473Z,19.65
2023-05-02T03:18:49.340Z,20.55
2023-05-02T03:21:16.311Z,23.65
2023-05-02T03:23:43.108Z,21.90
2023-05-02T03:26:10.061Z,20.70
2023-05-02T03:28:36.936Z,23.27
2023-05-02T03:31:03.915Z,22.10
2023-05-02T03:33:31.294Z,27.08
2023-05-02T03:35:58.369Z,24.77
2023-05-02T03:38:25.255Z,24.10
2023-05-02T03:40:52.184Z,20.50
2023-05-02T03:43:19.012Z,23.00
2023-05-02T03:45:48.105Z,21.58
2023-05-02T03:48:15.783Z,22.95
2023-05-02T03:50:43.541Z,22.30
2023-05-02T03:53:10.414Z,22.70
2023-05-02T03:55:41.131Z,22.15
2023-05-02T03:58:08.686Z,22.70
2023-05-02T04:00:35.894Z,23.65
2023-05-02T04:03:03.572Z,22.67
2023-05-02T04:05:31.006Z,21.05
2023-05-02T04:07:57.841Z,22.83
2023-05-02T04:10:24.924Z,24.48
2023-05-02T04:12:51.755Z,21.85
2023-05-02T04:15:18.612Z,23.23
2023-05-02T04:17:46.795Z,23.15
2023-05-02T04:20:13.852Z,17.83
2023-05-02T04:22:41.600Z,21.20
2023-05-02T04:25:08.882Z,19.20
2023-05-02T04:27:35.709Z,19.15
2023-05-02T04:30:03.302Z,18.83
2023-05-02T04:32:30.799Z,23.60
2023-05-02T04:34:57.598Z,16.88
2023-05-02T04:37:25.520Z,24.98
2023-05-02T04:39:52.729Z,21.80
2023-05-02T04:42:19.690Z,19.67
2023-05-02T04:44:46.602Z,20.42
2023-05-02T04:47:13.409Z,21.33
2023-05-02T04:49:40.920Z,20.23
2023-05-02T04:52:08.203Z,18.17
2023-05-02T04:54:35.176Z,22.55
2023-05-02T04:57:03.604Z,23.75
2023-05-02T04:59:30.740Z,21.17
2023-05-02T05:01:57.969Z,20.90
2023-05-02T05:04:25.058Z,20.48
2023-05-02T05:06:52.152Z,25.50
2023-05-02T05:09:19.023Z,23.98
2023-05-02T05:11:46.326Z,23.13
2023-05-02T05:14:13.638Z,23.10
2023-05-02T05:16:40.463Z,23.23
2023-05-02T05:19:07.508Z,19.15
2023-05-02T05:21:34.597Z,23.70
2023-05-02T05:24:02.361Z,18.02
2023-05-02T05:26:29.146Z,19.90
2023-05-02T05:28:56.078Z,22.80
2023-05-02T05:31:24.413Z,26.92
2023-05-02T05:33:51.457Z,26.33
2023-05-02T05:36:18.578Z,22.10
2023-05-02T05:38:46.678Z,21.58
2023-05-02T05:41:13.861Z,24.13
2023-05-02T05:43:40.829Z,23.60
2023-05-02T05:46:08.161Z,23.13
2023-05-02T05:48:35.012Z,26.13
2023-05-02T05:51:06.065Z,23.08
2023-05-02T05:53:33.360Z,23.25
2023-05-02T05:56:08.741Z,19.67
2023-05-02T05:58:35.658Z,23.75
2023-05-02T06:01:02.564Z,22.73
2023-05-02T06:03:29.496Z,23.25
2023-05-02T06:05:56.445Z,22.35
2023-05-02T06:08:23.315Z,22.17
2023-05-02T06:10:50.525Z,25.75
2023-05-02T06:13:17.403Z,28.00
2023-05-02T06:15:44.214Z,21.02
2023-05-02T06:18:11.093Z,24.13
2023-05-02T06:20:38.274Z,20.88
2023-05-02T06:23:05.089Z,23.98
2023-05-02T06:25:34.012Z,20.08
2023-05-02T06:28:00.877Z,24.08
2023-05-02T06:30:27.921Z,19.48
2023-05-02T06:32:54.804Z,22.38
2023-05-02T06:35:21.901Z,23.30
2023-05-02T06:37:48.851Z,21.65
2023-05-02T06:40:16.091Z,25.42
2023-05-02T06:42:42.991Z,20.67
2023-05-02T06:45:10.434Z,22.42
2023-05-02T06:47:37.384Z,20.83
2023-05-02T06:50:04.612Z,22.70
2023-05-02T06:52:31.540Z,23.67
2023-05-02T06:54:58.489Z,19.60
2023-05-02T06:57:25.613Z,18.15
2023-05-02T06:59:52.455Z,18.23
2023-05-02T07:02:19.251Z,18.80
2023-05-02T07:04:46.273Z,16.13
2023-05-02T07:07:13.256Z,18.80
2023-05-02T07:09:40.287Z,18.85
2023-05-02T07:12:07.296Z,16.35
2023-05-02T07:14:34.096Z,18.55
2023-05-02T07:17:01.002Z,19.90
2023-05-02T07:19:27.958Z,16.52
2023-05-02T07:21:54.810Z,19.50
2023-05-02T07:24:21.665Z,15.43
2023-05-02T07:26:48.862Z,18.15
2023-05-02T07:29:15.922Z,19.50
2023-05-02T07:31:43.018Z,17.30
2023-05-02T07:34:09.865Z,17.05
2023-05-02T07:36:36.669Z,16.90
2023-05-02T07:39:03.757Z,18.13
2023-05-02T07:41:30.678Z,18.98
2023-05-02T07:43:57.688Z,15.32
2023-05-02T07:46:25.048Z,17.17
2023-05-02T07:48:53.962Z,18.13
2023-05-02T07:51:21.640Z,18.63
2023-05-02T07:53:53.686Z,17.13
2023-05-02T07:56:21.213Z,16.00
2023-05-02T07:58:47.988Z,17.35
2023-05-02T08:01:14.900Z,17.20
2023-05-02T08:03:41.868Z,16.17
2023-05-02T08:06:09.871Z,16.63
2023-05-02T08:08:37.532Z,18.98
2023-05-02T08:11:04.562Z,18.40
2023-05-02T08:13:31.586Z,16.25
2023-05-02T08:15:58.744Z,18.27
2023-05-02T08:18:26.283Z,16.00
2023-05-02T08:20:56.427Z,16.90
2023-05-02T08:23:23.481Z,17.80
2023-05-02T08:25:50.526Z,20.90
2023-05-02T08:28:17.587Z,17.70
2023-05-02T08:30:45.436Z,15.02
2023-05-02T08:33:12.410Z,17.80
2023-05-02T08:35:39.249Z,16.60
2023-05-02T08:38:06.409Z,18.63
2023-05-02T08:40:42.478Z,19.73
2023-05-02T08:43:12.930Z,16.83
2023-05-02T08:45:43.027Z,17.33
2023-05-02T08:48:12.729Z,16.08
2023-05-02T08:50:42.497Z,14.70
2023-05-02T08:53:11.338Z,14.05
2023-05-02T08:55:42.437Z,15.68
2023-05-02T08:58:10.749Z,16.58
2023-05-02T09:00:41.261Z,18.80
2023-05-02T09:03:33.166Z,15.93
2023-05-02T09:06:17.987Z,14.13
2023-05-02T09:08:49.271Z,16.60
2023-05-02T09:11:17.123Z,16.80
2023-05-02T09:13:52.374Z,12.55
2023-05-02T09:16:25.565Z,13.52
2023-05-02T09:18:58.254Z,12.65
2023-05-02T09:21:35.939Z,12.50
2023-05-02T09:24:15.892Z,13.65
2023-05-02T09:26:44.045Z,15.80
2023-05-02T09:29:10.881Z,14.73
2023-05-02T09:31:54.762Z,16.30
2023-05-02T09:34:23.464Z,14.10
2023-05-02T09:36:54.594Z,13.35
2023-05-02T09:39:26.099Z,15.10
2023-05-02T09:41:53.564Z,13.80
2023-05-02T09:44:24.419Z,14.05
2023-05-02T09:46:54.390Z,15.05
2023-05-02T09:49:44.955Z,13.32
2023-05-02T09:52:17.549Z,13.82
2023-05-02T09:54:46.372Z,13.80
2023-05-02T09:57:13.258Z,14.15
2023-05-02T09:59:41.848Z,13.77
2023-05-02T10:02:13.366Z,13.60
2023-05-02T10:04:41.940Z,14.80
2023-05-02T10:07:10.681Z,13.80
2023-05-02T10:09:44.443Z,14.13
2023-05-02T10:12:16.608Z,12.00
2023-05-02T10:14:53.341Z,11.52
2023-05-02T10:17:48.652Z,11.88
2023-05-02T10:20:23.016Z,14.13
2023-05-02T10:22:51.831Z,11.98
2023-05-02T10:25:19.129Z,13.05
2023-05-02T10:27:46.369Z,13.10
2023-05-02T10:30:14.239Z,12.00
2023-05-02T10:32:41.823Z,10.15
2023-05-02T10:35:09.399Z,12.82
2023-05-02T10:37:38.530Z,12.70
2023-05-02T10:40:09.833Z,11.48
2023-05-02T10:42:44.027Z,11.70
2023-05-02T10:45:34.709Z,10.20
2023-05-02T10:48:27.613Z,11.10
2023-05-02T10:50:57.622Z,10.75
2023-05-02T10:53:37.335Z,13.32
2023-05-02T10:56:21.889Z,11.43
2023-05-02T10:58:51.438Z,13.13
2023-05-02T11:01:36.308Z,10.35
2023-05-02T11:04:09.021Z,8.70
2023-05-02T11:06:56.992Z,15.18
2023-05-02T11:09:23.779Z,9.63
2023-05-02T11:11:54.863Z,10.00
2023-05-02T11:14:43.226Z,8.68
2023-05-02T11:17:10.908Z,10.13
2023-05-02T11:19:37.737Z,10.95
2023-05-02T11:22:20.572Z,8.57
2023-05-02T11:24:49.508Z,9.13
2023-05-02T11:27:37.907Z,9.80
2023-05-02T11:30:09.774Z,7.35
2023-05-02T11:32:49.565Z,7.90
2023-05-02T11:35:24.779Z,7.53
2023-05-02T11:38:08.501Z,7.68
2023-05-02T11:40:35.315Z,9.05
2023-05-02T11:43:15.034Z,8.80
2023-05-02T11:45:45.450Z,9.80
2023-05-02T11:48:14.595Z,9.25
2023-05-02T11:50:53.920Z,7.38
2023-05-02T11:53:24.055Z,8.45
2023-05-02T11:55:57.597Z,7.38
2023-05-02T11:58:35.216Z,7.80
2023-05-02T12:01:16.379Z,7.65
2023-05-02T12:03:43.952Z,7.20
2023-05-02T12:06:16.847Z,7.00
2023-05-02T12:08:44.559Z,7.45
2023-05-02T12:11:18.026Z,7.03
2023-05-02T12:13:47.664Z,7.38
2023-05-02T12:16:15.394Z,8.93
2023-05-02T12:18:42.615Z,6.85
2023-05-02T12:21:09.746Z,6.05
2023-05-02T12:23:37.603Z,8.88
2023-05-02T12:26:32.796Z,8.02
2023-05-02T12:29:01.956Z,5.70
2023-05-02T12:31:31.095Z,7.07
2023-05-02T12:34:00.405Z,10.70
2023-05-02T12:36:33.493Z,6.00
2023-05-02T12:41:36.950Z,5.50
2023-05-02T12:44:05.544Z,4.70
2023-05-02T12:46:32.968Z,9.68
2023-05-02T12:52:59.273Z,4.20
2023-05-02T12:55:32.080Z,5.35
2023-05-02T12:58:06.232Z,6.30
2023-05-02T13:00:36.753Z,12.90
2023-05-02T13:03:04.530Z,21.67
2023-05-02T13:05:31.439Z,5.93
2023-05-02T13:07:59.299Z,6.25
2023-05-02T13:10:27.790Z,3.22
2023-05-02T13:12:55.575Z,3.45
2023-05-02T13:15:22.680Z,4.97
2023-05-02T13:17:52.354Z,6.72
2023-05-02T13:20:19.523Z,4.28
2023-05-02T13:22:46.381Z,7.00
2023-05-02T13:25:13.243Z,6.88
2023-05-02T13:27:41.423Z,6.00
2023-05-02T13:30:09.941Z,6.57
2023-05-02T13:32:37.553Z,4.78
2023-05-02T13:35:05.021Z,5.07
2023-05-02T13:37:32.250Z,3.75
2023-05-02T13:39:59.256Z,7.78
2023-05-02T13:42:26.193Z,5.65
2023-05-02T13:44:53.019Z,3.55
2023-05-02T13:47:19.844Z,3.30
2023-05-02T13:49:46.691Z,3.90
2023-05-02T13:52:13.616Z,4.35
2023-05-02T13:54:40.672Z,5.35
2023-05-02T13:57:07.462Z,8.10
2023-05-02T13:59:34.261Z,9.13
2023-05-02T14:02:01.242Z,7.32
2023-05-02T14:04:28.162Z,7.75
2023-05-02T14:06:55.058Z,6.43
2023-05-02T14:09:22.182Z,16.00
2023-05-02T14:11:49.250Z,10.32
2023-05-02T14:14:16.418Z,5.40
2023-05-02T14:16:43.297Z,7.38
2023-05-02T14:19:10.490Z,8.50
2023-05-02T14:21:38.588Z,8.10
2023-05-02T14:24:06.627Z,6.82
2023-05-02T14:26:34.393Z,8.73
2023-05-02T14:29:01.642Z,9.63
2023-05-02T14:31:28.650Z,11.38
2023-05-02T14:33:55.492Z,10.85
2023-05-02T14:36:22.372Z,6.45
2023-05-02T14:38:49.354Z,7.82
2023-05-02T14:41:16.335Z,8.82
2023-05-02T14:43:43.195Z,7.88
2023-05-02T14:46:10.147Z,8.15
2023-05-02T14:48:37.001Z,9.48
2023-05-02T14:51:05.353Z,8.52
2023-05-02T14:53:32.265Z,8.65
2023-05-02T14:55:59.070Z,8.70
2023-05-02T14:58:26.032Z,6.90
2023-05-02T15:00:52.977Z,9.38
2023-05-02T15:03:19.959Z,10.05
2023-05-02T15:05:46.992Z,8.00
2023-05-02T15:08:14.320Z,5.95
2023-05-02T15:10:41.333Z,8.25
2023-05-02T15:13:08.793Z,6.72
2023-05-02T15:15:35.951Z,7.68
2023-05-02T15:18:02.997Z,6.93
2023-05-02T15:20:30.025Z,5.45
2023-05-02T15:22:58.749Z,6.05
2023-05-02T15:25:25.927Z,10.30
2023-05-02T15:27:53.099Z,6.65
2023-05-02T15:30:22.578Z,5.88
2023-05-02T15:32:50.506Z,9.27
2023-05-02T15:35:17.614Z,6.82
2023-05-02T15:37:45.252Z,7.07
2023-05-02T15:40:14.317Z,7.28
2023-05-02T15:42:42.386Z,5.45
2023-05-02T15:45:13.623Z,8.27
2023-05-02T15:47:41.535Z,6.18
2023-05-02T15:50:11.035Z,5.68
2023-05-02T15:52:38.793Z,7.40
2023-05-02T15:55:08.100Z,7.53
2023-05-02T15:57:35.825Z,11.80
2023-05-02T16:00:03.523Z,7.15
2023-05-02T16:02:32.207Z,7.40
2023-05-02T16:04:59.915Z,7.88
2023-05-02T16:07:27.096Z,14.40
2023-05-02T16:09:54.551Z,8.18
2023-05-02T16:12:21.583Z,7.95
2023-05-02T16:14:48.552Z,7.45
2023-05-02T16:17:15.405Z,6.88
2023-05-02T16:19:42.312Z,8.75
2023-05-02T16:22:09.294Z,6.88
2023-05-02T16:24:36.243Z,9.05
2023-05-02T16:27:03.263Z,11.57
2023-05-02T16:29:30.722Z,10.63
2023-05-02T16:31:57.719Z,9.50
2023-05-02T16:34:24.726Z,11.05
2023-05-02T16:36:53.032Z,8.98
2023-05-02T16:39:19.951Z,7.25
2023-05-02T16:41:47.447Z,6.00
2023-05-02T16:44:14.404Z,5.30
2023-05-02T16:46:41.561Z,5.78
2023-05-02T16:49:08.641Z,5.78
2023-05-02T16:51:35.566Z,5.72
2023-05-02T16:54:02.578Z,4.47
2023-05-02T16:56:29.578Z,5.57
2023-05-02T16:58:56.750Z,5.82
2023-05-02T17:01:23.886Z,6.10
2023-05-02T17:03:50.847Z,6.45
2023-05-02T17:06:17.827Z,6.38
2023-05-02T17:08:44.660Z,6.50
2023-05-02T17:11:12.137Z,7.75
2023-05-02T17:13:38.992Z,6.50
2023-05-02T17:16:08.230Z,5.57
2023-05-02T17:18:35.816Z,11.43
2023-05-02T17:21:03.973Z,8.55
2023-05-02T17:23:31.482Z,8.02
2023-05-02T17:25:58.362Z,7.95
2023-05-02T17:28:25.386Z,7.30
2023-05-02T17:30:55.756Z,9.77
2023-05-02T17:33:22.802Z,6.93
2023-05-02T17:35:49.624Z,7.90
2023-05-02T17:38:16.524Z,8.07
2023-05-02T17:40:43.393Z,9.25
2023-05-02T17:43:10.285Z,7.80
2023-05-02T17:45:40.316Z,8.95
2023-05-02T17:48:07.630Z,6.72
2023-05-02T17:50:39.126Z,7.78
2023-05-02T17:53:06.623Z,6.32
2023-05-02T17:55:37.190Z,8.40
2023-05-02T17:58:04.566Z,8.75
2023-05-02T18:00:31.677Z,8.02
2023-05-02T18:02:58.877Z,7.80
2023-05-02T18:05:26.783Z,7.75
2023-05-02T18:07:53.960Z,8.98
2023-05-02T18:10:20.903Z,8.10
2023-05-02T18:12:47.682Z,7.85
2023-05-02T18:15:14.676Z,7.68
2023-05-02T18:17:41.511Z,7.97
2023-05-02T18:20:09.995Z,6.70
2023-05-02T18:22:37.904Z,7.85
2023-05-02T18:25:05.428Z,6.57
2023-05-02T18:27:32.541Z,6.85
2023-05-02T18:29:59.777Z,7.50
2023-05-02T18:32:26.618Z,9.95
2023-05-02T18:34:53.434Z,5.55
2023-05-02T18:37:20.382Z,6.18
2023-05-02T18:39:47.208Z,4.22
2023-05-02T18:42:14.765Z,5.43
2023-05-02T18:44:41.587Z,4.88
2023-05-02T18:47:08.422Z,5.63
2023-05-02T18:49:35.337Z,5.82
2023-05-02T18:52:03.425Z,4.03
2023-05-02T18:54:30.721Z,4.35
2023-05-02T18:57:00.066Z,6.70
2023-05-02T18:59:34.396Z,4.72
2023-05-02T19:02:10.787Z,7.30
2023-05-02T19:04:40.145Z,5.00
2023-05-02T19:07:11.987Z,5.50
2023-05-02T19:09:46.432Z,6.22
2023-05-02T19:12:16.938Z,6.53
2023-05-02T19:14:44.868Z,5.20
2023-05-02T19:17:11.999Z,4.22
2023-05-02T19:19:38.876Z,4.80
2023-05-02T19:22:05.722Z,6.78
2023-05-02T19:24:33.581Z,5.50
2023-05-02T19:27:01.303Z,5.13
2023-05-02T19:29:28.359Z,6.38
2023-05-02T19:31:55.382Z,6.60
2023-05-02T19:34:22.395Z,5.40
2023-05-02T19:36:49.211Z,7.05
2023-05-02T19:39:16.236Z,8.75
2023-05-02T19:41:43.036Z,7.90
2023-05-02T19:44:11.135Z,9.20
2023-05-02T19:46:38.371Z,8.55
2023-05-02T19:49:05.373Z,10.52
2023-05-02T19:51:34.176Z,6.10
2023-05-02T19:54:01.246Z,7.38
2023-05-02T19:56:28.756Z,6.50
2023-05-02T19:58:58.560Z,7.13
2023-05-02T20:01:27.195Z,6.75
2023-05-02T20:03:54.861Z,6.45
2023-05-02T20:06:22.345Z,8.77
2023-05-02T20:08:51.033Z,6.05
2023-05-02T20:11:18.009Z,8.35
2023-05-02T20:13:45.788Z,7.47
2023-05-02T20:16:14.151Z,7.03
2023-05-02T20:18:41.019Z,8.85
2023-05-02T20:21:08.075Z,8.75
2023-05-02T20:23:34.967Z,8.27
2023-05-02T20:26:01.903Z,8.25
2023-05-02T20:28:29.469Z,7.25
2023-05-02T20:30:56.561Z,9.20
2023-05-02T20:33:27.598Z,8.25
2023-05-02T20:36:00.753Z,7.05
2023-05-02T20:38:28.001Z,10.25
2023-05-02T20:40:54.834Z,7.53
2023-05-02T20:43:23.422Z,7.13
2023-05-02T20:45:50.247Z,9.73
2023-05-02T20:48:18.136Z,7.72
2023-05-02T20:50:54.963Z,5.32
2023-05-02T20:53:23.866Z,6.95
2023-05-02T20:55:50.968Z,8.90
2023-05-02T20:58:17.745Z,9.00
2023-05-02T21:00:48.477Z,6.78
2023-05-02T21:03:15.935Z,5.38
2023-05-02T21:05:42.820Z,5.68
2023-05-02T21:08:09.757Z,7.20
2023-05-02T21:10:36.566Z,4.20
2023-05-02T21:13:03.545Z,7.93
2023-05-02T21:15:35.957Z,4.07
2023-05-02T21:18:04.303Z,5.05
2023-05-02T21:20:31.251Z,4.28
2023-05-02T21:22:58.076Z,5.63
2023-05-02T21:25:25.530Z,4.03
2023-05-02T21:27:53.348Z,4.47
2023-05-02T21:30:20.447Z,4.82
2023-05-02T21:32:47.349Z,4.55
2023-05-02T21:35:14.351Z,5.95
2023-05-02T21:37:41.264Z,4.28
2023-05-02T21:40:09.190Z,6.88
2023-05-02T21:42:36.351Z,5.35
2023-05-02T21:45:03.668Z,6.03
2023-05-02T21:47:32.170Z,5.25
2023-05-02T21:49:59.152Z,5.68
2023-05-02T21:52:25.981Z,7.28
2023-05-02T21:54:52.886Z,7.40
2023-05-02T21:57:19.693Z,6.25
2023-05-02T21:59:46.724Z,5.97
2023-05-02T22:02:13.586Z,6.20
2023-05-02T22:04:40.466Z,7.15
2023-05-02T22:07:07.480Z,8.50
2023-05-02T22:09:34.298Z,6.88
2023-05-02T22:12:01.313Z,7.68
2023-05-02T22:14:41.772Z,9.32
2023-05-02T22:17:12.151Z,8.48
2023-05-02T22:19:39.241Z,8.98
2023-05-02T22:22:06.593Z,10.98
2023-05-02T22:24:34.097Z,11.98
2023-05-02T22:27:01.677Z,11.88
2023-05-02T22:29:30.140Z,11.38
2023-05-02T22:31:57.188Z,10.70
2023-05-02T22:34:24.301Z,8.70
2023-05-02T22:36:51.089Z,10.57
2023-05-02T22:39:17.927Z,9.02
2023-05-02T22:41:44.815Z,9.88
2023-05-02T22:44:11.662Z,9.55
2023-05-02T22:46:39.122Z,9.38
2023-05-02T22:49:11.648Z,9.38
2023-05-02T22:51:40.257Z,10.30
2023-05-02T22:54:08.162Z,9.40
2023-05-02T22:56:35.405Z,15.55
2023-05-02T22:59:02.336Z,15.25
2023-05-02T23:01:29.459Z,9.30
2023-05-02T23:03:56.572Z,10.50
2023-05-02T23:06:23.558Z,9.38
2023-05-02T23:08:50.609Z,8.63
2023-05-02T23:11:17.391Z,7.68
2023-05-02T23:13:44.192Z,11.88
2023-05-02T23:16:11.121Z,9.48
2023-05-02T23:18:37.934Z,7.57
2023-05-02T23:21:04.985Z,8.27
2023-05-02T23:23:31.883Z,7.50
2023-05-02T23:25:58.806Z,7.78
2023-05-02T23:28:26.384Z,7.00
2023-05-02T23:30:53.785Z,9.13
2023-05-02T23:33:21.077Z,8.15
2023-05-02T23:35:48.403Z,8.88
2023-05-02T23:38:15.654Z,11.63
2023-05-02T23:40:42.750Z,12.90
2023-05-02T23:43:10.178Z,11.07
2023-05-02T23:45:37.028Z,15.20
2023-05-02T23:48:04.054Z,13.13
2023-05-02T23:50:32.831Z,13.63
2023-05-02T23:52:59.973Z,13.68
2023-05-02T23:55:26.998Z,14.90
2023-05-02T23:57:53.923Z,14.25
